createdAt,value
2022-08-26T00:03:02.804Z,100663.25
2022-08-26T00:08:04.304Z,100678.78
2022-08-26T00:13:06.101Z,100705.09
2022-08-26T00:18:16.949Z,100703.22
2022-08-26T00:23:24.211Z,100707.00
2022-08-26T00:28:26.070Z,100717.09
2022-08-26T00:33:27.415Z,100717.41
2022-08-26T00:38:28.755Z,100719.53
2022-08-26T00:43:33.375Z,100715.13
2022-08-26T00:48:51.824Z,100713.53
2022-08-26T00:53:59.029Z,100720.22
2022-08-26T00:59:03.402Z,100732.59
2022-08-26T01:04:05.955Z,100724.84
2022-08-26T01:09:07.339Z,100732.19
2022-08-26T01:14:09.521Z,100732.03
2022-08-26T01:19:21.919Z,100739.84
2022-08-26T01:24:25.947Z,100746.63
2022-08-26T01:29:30.008Z,100747.38
2022-08-26T01:34:35.012Z,100754.19
2022-08-26T01:39:36.523Z,100745.94
2022-08-26T01:44:41.038Z,100757.28
2022-08-26T01:49:43.420Z,100769.94
2022-08-26T01:54:46.287Z,100777.34
2022-08-26T01:59:53.006Z,100778.06
2022-08-26T02:04:58.437Z,100772.75
2022-08-26T02:10:00.138Z,100787.03
2022-08-26T02:15:05.673Z,100778.84
2022-08-26T02:20:13.201Z,100793.94
2022-08-26T02:25:19.659Z,100789.69
2022-08-26T02:30:22.992Z,100790.00
2022-08-26T02:35:25.109Z,100792.78
2022-08-26T02:40:30.634Z,100791.56
2022-08-26T02:45:33.343Z,100799.69
2022-08-26T02:50:34.950Z,100807.19
2022-08-26T02:55:36.695Z,100791.81
2022-08-26T03:00:38.864Z,100793.84
2022-08-26T03:05:54.583Z,100788.00
2022-08-26T03:10:55.978Z,100800.44
2022-08-26T03:15:57.380Z,100797.56
2022-08-26T03:20:59.375Z,100796.28
2022-08-26T03:26:01.621Z,100799.94
2022-08-26T03:31:02.980Z,100798.50
2022-08-26T03:36:06.588Z,100796.38
2022-08-26T03:41:08.894Z,100799.09
2022-08-26T03:46:12.074Z,100796.06
2022-08-26T03:51:14.923Z,100799.91
2022-08-26T03:56:19.779Z,100801.28
2022-08-26T04:01:21.413Z,100799.19
2022-08-26T04:06:22.926Z,100794.06
2022-08-26T04:11:30.390Z,100799.94
2022-08-26T04:16:34.172Z,100798.66
2022-08-26T04:21:38.271Z,100806.69
2022-08-26T04:26:43.659Z,100801.16
2022-08-26T04:31:45.611Z,100808.09
2022-08-26T04:36:47.738Z,100803.06
2022-08-26T04:41:50.127Z,100807.09
2022-08-26T04:46:52.349Z,100800.94
2022-08-26T04:51:54.850Z,100813.97
2022-08-26T04:56:56.337Z,100814.25
2022-08-26T05:01:59.498Z,100819.88
2022-08-26T05:07:02.737Z,100818.88
2022-08-26T05:12:04.519Z,100821.53
2022-08-26T05:17:06.020Z,100815.19
2022-08-26T05:22:08.176Z,100819.56
2022-08-26T05:27:11.777Z,100824.88
2022-08-26T05:32:13.832Z,100825.69
2022-08-26T05:37:17.066Z,100829.72
2022-08-26T05:42:20.027Z,100836.13
2022-08-26T05:47:21.372Z,100828.66
2022-08-26T05:52:26.090Z,100833.16
2022-08-26T05:57:30.474Z,100826.28
2022-08-26T06:02:31.846Z,100843.03
2022-08-26T06:07:51.606Z,100843.91
2022-08-26T06:12:53.016Z,100841.78
2022-08-26T06:17:54.358Z,100848.16
2022-08-26T06:23:14.512Z,100844.16
2022-08-26T06:28:16.006Z,100850.03
2022-08-26T06:33:17.558Z,100851.88
2022-08-26T06:38:19.578Z,100849.00
2022-08-26T06:43:23.711Z,100853.81
2022-08-26T06:48:25.087Z,100846.63
2022-08-26T06:53:28.072Z,100852.25
2022-08-26T06:58:30.898Z,100860.47
2022-08-26T07:03:39.515Z,100855.44
2022-08-26T07:08:41.312Z,100860.19
2022-08-26T07:13:42.850Z,100861.00
2022-08-26T07:18:45.046Z,100863.94
2022-08-26T07:23:48.890Z,100869.81
2022-08-26T07:28:53.488Z,100871.38
2022-08-26T07:33:54.967Z,100879.09
2022-08-26T07:38:56.315Z,100875.94
2022-08-26T07:43:57.658Z,100878.03
2022-08-26T07:49:00.639Z,100882.31
2022-08-26T07:54:02.014Z,100893.22
2022-08-26T07:59:03.466Z,100891.09
2022-08-26T08:04:17.278Z,100886.56
2022-08-26T08:09:19.310Z,100897.19
2022-08-26T08:14:22.121Z,100893.22
2022-08-26T08:19:24.391Z,100893.19
2022-08-26T08:24:38.003Z,100891.88
2022-08-26T08:29:39.336Z,100901.16
2022-08-26T08:39:46.918Z,100897.88
2022-08-26T08:44:52.791Z,100887.78
2022-08-26T08:49:55.759Z,100894.91
2022-08-26T08:54:58.148Z,100886.66
2022-08-26T09:00:08.297Z,100899.19
2022-08-26T09:05:15.022Z,100898.94
2022-08-26T09:10:19.683Z,100904.19
2022-08-26T09:15:35.018Z,100896.75
2022-08-26T09:20:55.003Z,100895.88
2022-08-26T09:25:58.300Z,100898.13
2022-08-26T09:31:15.059Z,100896.38
2022-08-26T09:36:35.383Z,100897.22
2022-08-26T09:41:40.452Z,100896.84
2022-08-26T09:46:44.113Z,100901.84
2022-08-26T09:51:45.458Z,100903.25
2022-08-26T09:56:52.399Z,100902.78
2022-08-26T10:01:54.893Z,100905.44
2022-08-26T10:06:59.544Z,100905.97
2022-08-26T10:12:04.134Z,100897.31
2022-08-26T10:17:09.400Z,100896.84
2022-08-26T10:22:16.758Z,100895.81
2022-08-26T10:27:37.696Z,100894.47
2022-08-26T10:32:50.387Z,100894.22
2022-08-26T10:37:54.159Z,100891.00
2022-08-26T10:42:59.260Z,100896.34
2022-08-26T10:48:10.299Z,100885.59
2022-08-26T10:53:12.032Z,100885.59
2022-08-26T10:58:38.650Z,100882.06
2022-08-26T11:03:40.014Z,100868.84
2022-08-26T11:08:50.339Z,100875.59
2022-08-26T11:13:59.528Z,100868.53
2022-08-26T11:19:00.930Z,100867.66
2022-08-26T11:24:03.198Z,100869.28
2022-08-26T11:29:12.861Z,100864.94
2022-08-26T11:34:14.823Z,100869.22
2022-08-26T11:39:25.937Z,100878.81
2022-08-26T11:44:40.673Z,100876.06
2022-08-26T11:49:42.107Z,100870.63
2022-08-26T11:54:59.818Z,100866.06
2022-08-26T12:00:01.830Z,100865.06
2022-08-26T12:05:03.492Z,100872.78
2022-08-26T12:10:05.825Z,100868.56
2022-08-26T12:15:13.735Z,100873.66
2022-08-26T12:20:17.528Z,100865.44
2022-08-26T12:25:22.561Z,100877.03
2022-08-26T12:30:26.285Z,100872.00
2022-08-26T12:35:28.755Z,100857.13
2022-08-26T12:40:30.958Z,100856.78
2022-08-26T12:45:38.036Z,100844.72
2022-08-26T12:50:44.420Z,100841.84
2022-08-26T12:55:49.885Z,100845.91
2022-08-26T13:00:53.447Z,100846.28
2022-08-26T13:06:08.222Z,100838.44
2022-08-26T13:11:28.969Z,100852.41
2022-08-26T13:16:30.754Z,100850.94
2022-08-26T13:21:37.463Z,100831.78
2022-08-26T13:26:40.528Z,100838.38
2022-08-26T13:31:44.220Z,100833.59
2022-08-26T13:36:50.062Z,100823.28
2022-08-26T13:41:52.077Z,100819.41
2022-08-26T13:46:53.960Z,100823.97
2022-08-26T13:51:55.293Z,100812.81
2022-08-26T13:56:56.685Z,100812.34
2022-08-26T14:01:58.779Z,100812.81
2022-08-26T14:07:00.604Z,100813.78
2022-08-26T14:12:02.873Z,100812.25
2022-08-26T14:17:04.302Z,100807.91
2022-08-26T14:22:05.744Z,100813.50
2022-08-26T14:27:07.073Z,100818.72
2022-08-26T14:32:12.863Z,100801.09
2022-08-26T14:37:15.409Z,100808.84
2022-08-26T14:42:19.751Z,100813.00
2022-08-26T14:47:22.883Z,100809.00
2022-08-26T14:52:24.294Z,100814.75
2022-08-26T14:57:25.627Z,100813.75
2022-08-26T15:02:33.196Z,100820.19
2022-08-26T15:07:34.990Z,100812.84
2022-08-26T15:12:36.332Z,100801.03
2022-08-26T15:17:38.403Z,100799.59
2022-08-26T15:22:42.202Z,100790.63
2022-08-26T15:27:43.562Z,100790.84
2022-08-26T15:32:44.954Z,100796.94
2022-08-26T15:37:46.362Z,100804.47
2022-08-26T15:42:47.826Z,100797.81
2022-08-26T15:48:01.548Z,100799.25
2022-08-26T15:53:04.534Z,100801.34
2022-08-26T15:58:05.927Z,100792.94
2022-08-26T16:03:07.711Z,100791.72
2022-08-26T16:08:09.776Z,100790.63
2022-08-26T16:13:12.959Z,100774.75
2022-08-26T16:18:16.508Z,100784.03
2022-08-26T16:23:20.170Z,100786.69
2022-08-26T16:28:26.118Z,100792.69
2022-08-26T16:33:29.896Z,100785.31
2022-08-26T16:38:31.252Z,100794.91
2022-08-26T16:43:33.056Z,100803.97
2022-08-26T16:48:35.027Z,100805.06
2022-08-26T16:53:36.352Z,100796.06
2022-08-26T16:58:37.700Z,100806.19
2022-08-26T17:03:39.039Z,100815.84
2022-08-26T17:08:41.055Z,100819.66
2022-08-26T17:13:42.489Z,100820.75
2022-08-26T17:18:43.886Z,100828.50
2022-08-26T17:23:45.921Z,100843.19
2022-08-26T17:28:47.282Z,100841.56
2022-08-26T17:33:53.206Z,100854.09
2022-08-26T17:38:56.358Z,100851.16
2022-08-26T17:43:57.691Z,100855.69
2022-08-26T17:48:59.246Z,100854.88
2022-08-26T17:54:00.588Z,100851.09
2022-08-26T17:59:04.015Z,100857.47
2022-08-26T18:04:05.668Z,100857.16
2022-08-26T18:09:07.474Z,100856.09
2022-08-26T18:14:08.891Z,100862.75
2022-08-26T18:19:10.306Z,100855.78
2022-08-26T18:24:14.081Z,100853.13
2022-08-26T18:29:16.760Z,100859.22
2022-08-26T18:34:19.517Z,100867.44
2022-08-26T18:39:22.159Z,100873.22
2022-08-26T18:44:25.050Z,100878.28
2022-08-26T18:49:26.386Z,100873.81
2022-08-26T18:54:27.771Z,100874.06
2022-08-26T18:59:30.358Z,100867.94
2022-08-26T19:04:31.962Z,100878.47
2022-08-26T19:09:33.678Z,100882.25
2022-08-26T19:14:35.858Z,100876.13
2022-08-26T19:19:38.214Z,100873.13
2022-08-26T19:24:39.553Z,100878.19
2022-08-26T19:29:40.920Z,100879.50
2022-08-26T19:34:42.397Z,100877.41
2022-08-26T19:39:43.742Z,100883.47
2022-08-26T19:45:03.799Z,100880.81
2022-08-26T19:50:07.453Z,100884.78
2022-08-26T19:55:10.024Z,100888.50
2022-08-26T20:00:14.807Z,100890.59
2022-08-26T20:05:16.624Z,100883.94
2022-08-26T20:10:21.009Z,100882.06
2022-08-26T20:15:22.485Z,100887.13
2022-08-26T20:20:42.306Z,100895.81
2022-08-26T20:25:43.695Z,100883.88
2022-08-26T20:30:45.047Z,100895.28
2022-08-26T20:35:46.874Z,100894.75
2022-08-26T20:40:49.196Z,100901.59
2022-08-26T20:45:50.597Z,100902.88
2022-08-26T20:50:55.843Z,100909.53
2022-08-26T20:56:01.292Z,100908.97
2022-08-26T21:01:07.316Z,100917.94
2022-08-26T21:06:09.845Z,100913.63
2022-08-26T21:11:11.606Z,100917.28
2022-08-26T21:16:13.211Z,100936.63
2022-08-26T21:21:14.565Z,100931.03
2022-08-26T21:26:16.535Z,100935.25
2022-08-26T21:31:18.997Z,100930.72
2022-08-26T21:36:20.418Z,100929.41
2022-08-26T21:41:24.939Z,100922.47
2022-08-26T21:46:27.669Z,100921.41
2022-08-26T21:51:30.270Z,100931.22
2022-08-26T21:56:32.590Z,100931.34
2022-08-26T22:01:34.855Z,100935.25
2022-08-26T22:06:40.691Z,100919.53
2022-08-26T22:11:42.120Z,100916.59
2022-08-26T22:16:48.972Z,100925.50
2022-08-26T22:21:53.147Z,100916.22
2022-08-26T22:26:55.057Z,100920.97
2022-08-26T22:31:57.189Z,100920.81
2022-08-26T22:36:59.528Z,100922.56
2022-08-26T22:42:00.867Z,100926.13
2022-08-26T22:47:02.258Z,100930.94
2022-08-26T22:52:03.605Z,100930.00
2022-08-26T22:57:04.991Z,100927.09
2022-08-26T23:02:06.434Z,100932.88
2022-08-26T23:07:09.622Z,100919.06
2022-08-26T23:12:10.997Z,100935.66
2022-08-26T23:17:14.116Z,100943.19
2022-08-26T23:22:17.497Z,100946.59
2022-08-26T23:27:18.894Z,100949.59
2022-08-26T23:32:20.287Z,100951.66
2022-08-26T23:37:31.991Z,100957.03
2022-08-26T23:42:36.073Z,100951.41
2022-08-26T23:47:37.493Z,100960.28
2022-08-26T23:52:57.603Z,100963.69
2022-08-26T23:57:59.162Z,100960.75
